sensor_id;sensor_type;location;lat;lon;timestamp;P1;durP1;ratioP1;P2;durP2;ratioP2
61358;SDS011;47228;46.762;23.598;2023-07-29T00:00:53;12.80;;;6.10;;
61358;SDS011;47228;46.762;23.598;2023-07-29T00:03:26;13.20;;;6.10;;
61358;SDS011;47228;46.762;23.598;2023-07-29T00:05:54;13.70;;;6.50;;
61358;SDS011;47228;46.762;23.598;2023-07-29T00:08:22;10.60;;;6.10;;
61358;SDS011;47228;46.762;23.598;2023-07-29T00:10:50;12.40;;;6.90;;
61358;SDS011;47228;46.762;23.598;2023-07-29T00:13:18;13.50;;;7.00;;
61358;SDS011;47228;46.762;23.598;2023-07-29T00:15:49;13.70;;;6.50;;
61358;SDS011;47228;46.762;23.598;2023-07-29T00:18:17;12.60;;;6.50;;
61358;SDS011;47228;46.762;23.598;2023-07-29T00:20:45;12.00;;;6.50;;
61358;SDS011;47228;46.762;23.598;2023-07-29T00:23:13;12.60;;;6.60;;
61358;SDS011;47228;46.762;23.598;2023-07-29T00:25:41;12.30;;;6.60;;
61358;SDS011;47228;46.762;23.598;2023-07-29T00:28:09;12.00;;;6.80;;
61358;SDS011;47228;46.762;23.598;2023-07-29T00:30:37;13.50;;;6.80;;
61358;SDS011;47228;46.762;23.598;2023-07-29T00:33:05;16.70;;;6.60;;
61358;SDS011;47228;46.762;23.598;2023-07-29T00:35:34;11.80;;;6.40;;
61358;SDS011;47228;46.762;23.598;2023-07-29T00:38:02;11.00;;;6.20;;
61358;SDS011;47228;46.762;23.598;2023-07-29T00:40:30;13.80;;;6.70;;
61358;SDS011;47228;46.762;23.598;2023-07-29T00:43:03;12.50;;;7.20;;
61358;SDS011;47228;46.762;23.598;2023-07-29T00:45:32;14.90;;;7.30;;
61358;SDS011;47228;46.762;23.598;2023-07-29T00:48:01;16.40;;;7.90;;
61358;SDS011;47228;46.762;23.598;2023-07-29T00:50:30;14.80;;;7.40;;
61358;SDS011;47228;46.762;23.598;2023-07-29T00:53:00;14.10;;;7.20;;
61358;SDS011;47228;46.762;23.598;2023-07-29T00:55:28;15.80;;;7.70;;
61358;SDS011;47228;46.762;23.598;2023-07-29T00:57:56;16.60;;;7.80;;
61358;SDS011;47228;46.762;23.598;2023-07-29T01:00:25;13.60;;;7.40;;
61358;SDS011;47228;46.762;23.598;2023-07-29T01:02:53;14.70;;;7.10;;
61358;SDS011;47228;46.762;23.598;2023-07-29T01:05:23;15.00;;;7.60;;
61358;SDS011;47228;46.762;23.598;2023-07-29T01:08:10;15.00;;;8.00;;
61358;SDS011;47228;46.762;23.598;2023-07-29T01:10:48;14.30;;;7.90;;
61358;SDS011;47228;46.762;23.598;2023-07-29T01:13:31;15.80;;;8.00;;
61358;SDS011;47228;46.762;23.598;2023-07-29T01:16:08;15.40;;;7.60;;
61358;SDS011;47228;46.762;23.598;2023-07-29T01:18:45;13.80;;;7.70;;
61358;SDS011;47228;46.762;23.598;2023-07-29T01:21:15;13.00;;;7.70;;
61358;SDS011;47228;46.762;23.598;2023-07-29T01:23:44;12.70;;;7.30;;
61358;SDS011;47228;46.762;23.598;2023-07-29T01:26:12;16.50;;;7.60;;
61358;SDS011;47228;46.762;23.598;2023-07-29T01:28:40;15.00;;;7.80;;
61358;SDS011;47228;46.762;23.598;2023-07-29T01:33:40;15.60;;;7.90;;
61358;SDS011;47228;46.762;23.598;2023-07-29T01:38:48;20.30;;;9.30;;
61358;SDS011;47228;46.762;23.598;2023-07-29T01:41:18;15.10;;;8.20;;
61358;SDS011;47228;46.762;23.598;2023-07-29T01:43:48;16.30;;;10.00;;
61358;SDS011;47228;46.762;23.598;2023-07-29T01:46:16;16.60;;;8.70;;
61358;SDS011;47228;46.762;23.598;2023-07-29T01:48:44;16.30;;;9.30;;
61358;SDS011;47228;46.762;23.598;2023-07-29T01:51:12;22.80;;;9.40;;
61358;SDS011;47228;46.762;23.598;2023-07-29T01:53:41;19.50;;;9.10;;
61358;SDS011;47228;46.762;23.598;2023-07-29T01:56:08;17.40;;;9.30;;
61358;SDS011;47228;46.762;23.598;2023-07-29T01:58:37;18.20;;;9.30;;
61358;SDS011;47228;46.762;23.598;2023-07-29T02:01:05;19.40;;;9.50;;
61358;SDS011;47228;46.762;23.598;2023-07-29T02:03:33;22.20;;;9.30;;
61358;SDS011;47228;46.762;23.598;2023-07-29T02:06:01;16.10;;;8.60;;
61358;SDS011;47228;46.762;23.598;2023-07-29T02:08:29;17.20;;;10.00;;
61358;SDS011;47228;46.762;23.598;2023-07-29T02:10:57;19.20;;;8.80;;
61358;SDS011;47228;46.762;23.598;2023-07-29T02:13:25;19.80;;;9.90;;
61358;SDS011;47228;46.762;23.598;2023-07-29T02:15:53;16.50;;;9.90;;
61358;SDS011;47228;46.762;23.598;2023-07-29T02:18:21;17.00;;;9.90;;
61358;SDS011;47228;46.762;23.598;2023-07-29T02:20:49;16.40;;;8.50;;
61358;SDS011;47228;46.762;23.598;2023-07-29T02:23:17;14.70;;;8.50;;
61358;SDS011;47228;46.762;23.598;2023-07-29T02:25:45;17.60;;;8.00;;
61358;SDS011;47228;46.762;23.598;2023-07-29T02:28:13;20.40;;;9.10;;
61358;SDS011;47228;46.762;23.598;2023-07-29T02:30:41;17.10;;;8.80;;
61358;SDS011;47228;46.762;23.598;2023-07-29T02:33:12;13.90;;;7.90;;
61358;SDS011;47228;46.762;23.598;2023-07-29T02:35:40;14.30;;;8.20;;
61358;SDS011;47228;46.762;23.598;2023-07-29T02:38:08;17.20;;;8.20;;
61358;SDS011;47228;46.762;23.598;2023-07-29T02:40:37;15.00;;;7.80;;
61358;SDS011;47228;46.762;23.598;2023-07-29T02:43:05;15.00;;;8.70;;
61358;SDS011;47228;46.762;23.598;2023-07-29T02:45:33;15.20;;;8.30;;
61358;SDS011;47228;46.762;23.598;2023-07-29T02:48:01;17.60;;;9.10;;
61358;SDS011;47228;46.762;23.598;2023-07-29T02:50:29;14.30;;;8.40;;
61358;SDS011;47228;46.762;23.598;2023-07-29T02:52:57;15.60;;;8.40;;
61358;SDS011;47228;46.762;23.598;2023-07-29T02:55:25;16.00;;;9.10;;
61358;SDS011;47228;46.762;23.598;2023-07-29T02:57:54;14.30;;;7.60;;
61358;SDS011;47228;46.762;23.598;2023-07-29T03:00:22;17.70;;;8.50;;
61358;SDS011;47228;46.762;23.598;2023-07-29T03:02:50;17.90;;;8.90;;
61358;SDS011;47228;46.762;23.598;2023-07-29T03:05:18;15.70;;;8.30;;
61358;SDS011;47228;46.762;23.598;2023-07-29T03:07:46;18.30;;;10.00;;
61358;SDS011;47228;46.762;23.598;2023-07-29T03:10:14;15.00;;;9.20;;
61358;SDS011;47228;46.762;23.598;2023-07-29T03:12:42;18.70;;;9.90;;
61358;SDS011;47228;46.762;23.598;2023-07-29T03:15:11;15.30;;;8.70;;
61358;SDS011;47228;46.762;23.598;2023-07-29T03:17:39;20.00;;;9.30;;
61358;SDS011;47228;46.762;23.598;2023-07-29T03:20:07;16.10;;;9.00;;
61358;SDS011;47228;46.762;23.598;2023-07-29T03:22:35;15.40;;;8.90;;
61358;SDS011;47228;46.762;23.598;2023-07-29T03:25:04;17.50;;;9.00;;
61358;SDS011;47228;46.762;23.598;2023-07-29T03:27:33;17.60;;;9.10;;
61358;SDS011;47228;46.762;23.598;2023-07-29T03:30:04;19.40;;;8.80;;
61358;SDS011;47228;46.762;23.598;2023-07-29T03:32:32;14.60;;;7.90;;
61358;SDS011;47228;46.762;23.598;2023-07-29T03:35:00;16.00;;;9.40;;
61358;SDS011;47228;46.762;23.598;2023-07-29T03:37:28;20.50;;;9.30;;
61358;SDS011;47228;46.762;23.598;2023-07-29T03:39:56;20.50;;;9.00;;
61358;SDS011;47228;46.762;23.598;2023-07-29T03:42:27;16.50;;;8.60;;
61358;SDS011;47228;46.762;23.598;2023-07-29T03:44:55;16.70;;;8.50;;
61358;SDS011;47228;46.762;23.598;2023-07-29T03:47:23;19.60;;;8.80;;
61358;SDS011;47228;46.762;23.598;2023-07-29T03:49:51;16.90;;;8.40;;
61358;SDS011;47228;46.762;23.598;2023-07-29T03:52:19;17.30;;;9.00;;
61358;SDS011;47228;46.762;23.598;2023-07-29T03:54:47;15.60;;;8.80;;
61358;SDS011;47228;46.762;23.598;2023-07-29T03:57:15;17.90;;;10.20;;
61358;SDS011;47228;46.762;23.598;2023-07-29T03:59:43;15.90;;;8.70;;
61358;SDS011;47228;46.762;23.598;2023-07-29T04:02:11;16.20;;;8.60;;
61358;SDS011;47228;46.762;23.598;2023-07-29T04:04:39;19.70;;;9.00;;
61358;SDS011;47228;46.762;23.598;2023-07-29T04:07:09;20.20;;;8.60;;
61358;SDS011;47228;46.762;23.598;2023-07-29T04:09:37;19.20;;;9.00;;
61358;SDS011;47228;46.762;23.598;2023-07-29T04:12:05;17.60;;;8.40;;
61358;SDS011;47228;46.762;23.598;2023-07-29T04:14:33;23.20;;;10.40;;
61358;SDS011;47228;46.762;23.598;2023-07-29T04:17:01;15.70;;;9.20;;
61358;SDS011;47228;46.762;23.598;2023-07-29T04:19:30;20.20;;;10.00;;
61358;SDS011;47228;46.762;23.598;2023-07-29T04:21:58;16.70;;;9.70;;
61358;SDS011;47228;46.762;23.598;2023-07-29T04:24:26;23.40;;;11.50;;
61358;SDS011;47228;46.762;23.598;2023-07-29T04:26:54;16.90;;;10.60;;
61358;SDS011;47228;46.762;23.598;2023-07-29T04:29:21;25.60;;;13.70;;
61358;SDS011;47228;46.762;23.598;2023-07-29T04:31:50;28.60;;;14.80;;
61358;SDS011;47228;46.762;23.598;2023-07-29T04:34:19;24.90;;;14.40;;
61358;SDS011;47228;46.762;23.598;2023-07-29T04:36:47;23.20;;;13.30;;
61358;SDS011;47228;46.762;23.598;2023-07-29T04:39:15;26.90;;;14.20;;
61358;SDS011;47228;46.762;23.598;2023-07-29T04:41:43;32.50;;;15.70;;
61358;SDS011;47228;46.762;23.598;2023-07-29T04:44:12;30.30;;;16.40;;
61358;SDS011;47228;46.762;23.598;2023-07-29T04:46:40;28.90;;;15.70;;
61358;SDS011;47228;46.762;23.598;2023-07-29T04:49:08;30.50;;;15.60;;
61358;SDS011;47228;46.762;23.598;2023-07-29T04:51:36;32.80;;;16.10;;
61358;SDS011;47228;46.762;23.598;2023-07-29T04:54:04;30.00;;;17.10;;
61358;SDS011;47228;46.762;23.598;2023-07-29T04:56:32;29.10;;;17.20;;
61358;SDS011;47228;46.762;23.598;2023-07-29T04:59:00;33.10;;;16.10;;
61358;SDS011;47228;46.762;23.598;2023-07-29T05:01:28;37.40;;;16.60;;
61358;SDS011;47228;46.762;23.598;2023-07-29T05:03:56;38.40;;;17.50;;
61358;SDS011;47228;46.762;23.598;2023-07-29T05:06:24;49.10;;;17.50;;
61358;SDS011;47228;46.762;23.598;2023-07-29T05:08:52;47.90;;;18.10;;
61358;SDS011;47228;46.762;23.598;2023-07-29T05:11:20;53.00;;;17.20;;
61358;SDS011;47228;46.762;23.598;2023-07-29T05:13:49;42.00;;;17.20;;
61358;SDS011;47228;46.762;23.598;2023-07-29T05:16:17;42.90;;;17.10;;
61358;SDS011;47228;46.762;23.598;2023-07-29T05:18:45;36.00;;;16.30;;
61358;SDS011;47228;46.762;23.598;2023-07-29T05:21:13;37.00;;;16.40;;
61358;SDS011;47228;46.762;23.598;2023-07-29T05:23:42;37.70;;;16.40;;
61358;SDS011;47228;46.762;23.598;2023-07-29T05:26:10;36.40;;;14.80;;
61358;SDS011;47228;46.762;23.598;2023-07-29T05:28:38;41.60;;;14.40;;
61358;SDS011;47228;46.762;23.598;2023-07-29T05:31:06;32.20;;;15.20;;
61358;SDS011;47228;46.762;23.598;2023-07-29T05:33:34;29.90;;;12.90;;
61358;SDS011;47228;46.762;23.598;2023-07-29T05:36:04;29.90;;;12.00;;
61358;SDS011;47228;46.762;23.598;2023-07-29T05:38:32;32.00;;;12.00;;
61358;SDS011;47228;46.762;23.598;2023-07-29T05:41:00;25.50;;;11.80;;
61358;SDS011;47228;46.762;23.598;2023-07-29T05:43:28;23.10;;;11.90;;
61358;SDS011;47228;46.762;23.598;2023-07-29T05:45:56;22.90;;;11.10;;
61358;SDS011;47228;46.762;23.598;2023-07-29T05:48:24;30.50;;;13.30;;
61358;SDS011;47228;46.762;23.598;2023-07-29T05:50:52;19.40;;;10.30;;
61358;SDS011;47228;46.762;23.598;2023-07-29T05:53:20;19.20;;;10.70;;
61358;SDS011;47228;46.762;23.598;2023-07-29T05:55:48;25.00;;;10.40;;
61358;SDS011;47228;46.762;23.598;2023-07-29T05:58:16;21.30;;;10.80;;
61358;SDS011;47228;46.762;23.598;2023-07-29T06:00:44;27.40;;;10.70;;
61358;SDS011;47228;46.762;23.598;2023-07-29T06:03:12;25.70;;;10.80;;
61358;SDS011;47228;46.762;23.598;2023-07-29T06:05:40;20.80;;;9.50;;
61358;SDS011;47228;46.762;23.598;2023-07-29T06:08:08;27.30;;;11.40;;
61358;SDS011;47228;46.762;23.598;2023-07-29T06:10:37;28.30;;;10.60;;
61358;SDS011;47228;46.762;23.598;2023-07-29T06:13:05;24.20;;;9.70;;
61358;SDS011;47228;46.762;23.598;2023-07-29T06:15:33;22.70;;;10.30;;
61358;SDS011;47228;46.762;23.598;2023-07-29T06:18:02;27.20;;;9.90;;
61358;SDS011;47228;46.762;23.598;2023-07-29T06:20:30;29.30;;;9.30;;
61358;SDS011;47228;46.762;23.598;2023-07-29T06:22:58;23.60;;;9.20;;
61358;SDS011;47228;46.762;23.598;2023-07-29T06:25:26;24.60;;;9.10;;
61358;SDS011;47228;46.762;23.598;2023-07-29T06:27:54;27.80;;;9.70;;
61358;SDS011;47228;46.762;23.598;2023-07-29T06:30:22;23.20;;;9.90;;
61358;SDS011;47228;46.762;23.598;2023-07-29T06:32:50;27.90;;;11.30;;
61358;SDS011;47228;46.762;23.598;2023-07-29T06:35:18;30.90;;;11.40;;
61358;SDS011;47228;46.762;23.598;2023-07-29T06:37:46;25.70;;;11.60;;
61358;SDS011;47228;46.762;23.598;2023-07-29T06:40:14;20.70;;;10.90;;
61358;SDS011;47228;46.762;23.598;2023-07-29T06:42:42;26.30;;;11.50;;
61358;SDS011;47228;46.762;23.598;2023-07-29T06:45:10;29.10;;;11.10;;
61358;SDS011;47228;46.762;23.598;2023-07-29T06:47:38;29.10;;;10.20;;
61358;SDS011;47228;46.762;23.598;2023-07-29T06:50:06;24.70;;;10.70;;
61358;SDS011;47228;46.762;23.598;2023-07-29T06:52:34;20.50;;;9.90;;
61358;SDS011;47228;46.762;23.598;2023-07-29T06:55:04;21.00;;;9.30;;
61358;SDS011;47228;46.762;23.598;2023-07-29T06:57:32;23.90;;;9.60;;
61358;SDS011;47228;46.762;23.598;2023-07-29T07:00:00;19.30;;;8.70;;
61358;SDS011;47228;46.762;23.598;2023-07-29T07:02:29;19.40;;;9.40;;
61358;SDS011;47228;46.762;23.598;2023-07-29T07:04:57;21.60;;;9.60;;
61358;SDS011;47228;46.762;23.598;2023-07-29T07:07:25;21.70;;;8.80;;
61358;SDS011;47228;46.762;23.598;2023-07-29T07:09:53;23.80;;;8.50;;
61358;SDS011;47228;46.762;23.598;2023-07-29T07:12:21;15.90;;;8.40;;
61358;SDS011;47228;46.762;23.598;2023-07-29T07:14:49;16.10;;;8.60;;
61358;SDS011;47228;46.762;23.598;2023-07-29T07:17:17;21.20;;;8.80;;
61358;SDS011;47228;46.762;23.598;2023-07-29T07:19:45;15.70;;;8.70;;
61358;SDS011;47228;46.762;23.598;2023-07-29T07:22:14;16.60;;;7.90;;
61358;SDS011;47228;46.762;23.598;2023-07-29T07:24:42;17.30;;;7.80;;
61358;SDS011;47228;46.762;23.598;2023-07-29T07:27:10;16.80;;;7.70;;
61358;SDS011;47228;46.762;23.598;2023-07-29T07:29:38;12.70;;;7.00;;
61358;SDS011;47228;46.762;23.598;2023-07-29T07:32:06;14.90;;;6.80;;
61358;SDS011;47228;46.762;23.598;2023-07-29T07:34:34;16.00;;;7.90;;
61358;SDS011;47228;46.762;23.598;2023-07-29T07:37:02;12.70;;;7.10;;
61358;SDS011;47228;46.762;23.598;2023-07-29T07:39:32;18.30;;;7.40;;
61358;SDS011;47228;46.762;23.598;2023-07-29T07:42:00;15.20;;;7.90;;
61358;SDS011;47228;46.762;23.598;2023-07-29T07:44:28;12.40;;;7.30;;
61358;SDS011;47228;46.762;23.598;2023-07-29T07:46:56;16.10;;;6.80;;
61358;SDS011;47228;46.762;23.598;2023-07-29T07:49:24;12.60;;;6.50;;
61358;SDS011;47228;46.762;23.598;2023-07-29T07:51:52;13.30;;;6.70;;
61358;SDS011;47228;46.762;23.598;2023-07-29T07:54:19;13.30;;;6.60;;
61358;SDS011;47228;46.762;23.598;2023-07-29T07:56:47;14.00;;;6.70;;
61358;SDS011;47228;46.762;23.598;2023-07-29T07:59:15;11.90;;;6.40;;
61358;SDS011;47228;46.762;23.598;2023-07-29T08:01:44;10.60;;;6.30;;
61358;SDS011;47228;46.762;23.598;2023-07-29T08:04:12;9.70;;;5.50;;
61358;SDS011;47228;46.762;23.598;2023-07-29T08:06:40;9.90;;;6.20;;
61358;SDS011;47228;46.762;23.598;2023-07-29T08:09:08;10.70;;;6.40;;
61358;SDS011;47228;46.762;23.598;2023-07-29T08:11:36;12.20;;;6.40;;
61358;SDS011;47228;46.762;23.598;2023-07-29T08:14:04;10.60;;;5.70;;
61358;SDS011;47228;46.762;23.598;2023-07-29T08:16:32;11.80;;;5.60;;
61358;SDS011;47228;46.762;23.598;2023-07-29T08:19:00;10.60;;;5.70;;
61358;SDS011;47228;46.762;23.598;2023-07-29T08:21:28;9.60;;;5.80;;
61358;SDS011;47228;46.762;23.598;2023-07-29T08:23:56;14.90;;;5.60;;
61358;SDS011;47228;46.762;23.598;2023-07-29T08:26:24;8.60;;;5.20;;
61358;SDS011;47228;46.762;23.598;2023-07-29T08:28:52;8.90;;;5.30;;
61358;SDS011;47228;46.762;23.598;2023-07-29T08:31:22;9.00;;;5.10;;
61358;SDS011;47228;46.762;23.598;2023-07-29T08:33:50;10.10;;;5.30;;
61358;SDS011;47228;46.762;23.598;2023-07-29T08:36:18;11.80;;;4.90;;
61358;SDS011;47228;46.762;23.598;2023-07-29T08:38:45;8.90;;;5.20;;
61358;SDS011;47228;46.762;23.598;2023-07-29T08:41:14;10.10;;;4.90;;
61358;SDS011;47228;46.762;23.598;2023-07-29T08:43:50;9.60;;;4.80;;
61358;SDS011;47228;46.762;23.598;2023-07-29T08:46:23;10.90;;;5.10;;
61358;SDS011;47228;46.762;23.598;2023-07-29T08:48:52;10.50;;;5.30;;
61358;SDS011;47228;46.762;23.598;2023-07-29T08:51:21;11.80;;;5.00;;
61358;SDS011;47228;46.762;23.598;2023-07-29T08:53:49;11.40;;;4.80;;
61358;SDS011;47228;46.762;23.598;2023-07-29T08:56:17;9.10;;;5.10;;
61358;SDS011;47228;46.762;23.598;2023-07-29T08:58:45;9.30;;;4.90;;
61358;SDS011;47228;46.762;23.598;2023-07-29T09:01:14;10.40;;;4.90;;
61358;SDS011;47228;46.762;23.598;2023-07-29T09:03:43;7.90;;;4.60;;
61358;SDS011;47228;46.762;23.598;2023-07-29T09:06:11;9.90;;;5.00;;
61358;SDS011;47228;46.762;23.598;2023-07-29T09:08:42;10.50;;;5.20;;
61358;SDS011;47228;46.762;23.598;2023-07-29T09:11:13;8.70;;;5.10;;
61358;SDS011;47228;46.762;23.598;2023-07-29T09:13:44;7.60;;;4.70;;
61358;SDS011;47228;46.762;23.598;2023-07-29T09:16:12;9.10;;;4.90;;
61358;SDS011;47228;46.762;23.598;2023-07-29T09:18:41;6.70;;;4.50;;
61358;SDS011;47228;46.762;23.598;2023-07-29T09:21:09;14.60;;;4.70;;
61358;SDS011;47228;46.762;23.598;2023-07-29T09:23:44;7.80;;;4.50;;
61358;SDS011;47228;46.762;23.598;2023-07-29T09:26:12;8.40;;;4.90;;
61358;SDS011;47228;46.762;23.598;2023-07-29T09:28:40;8.20;;;4.50;;
61358;SDS011;47228;46.762;23.598;2023-07-29T09:31:18;8.40;;;4.40;;
61358;SDS011;47228;46.762;23.598;2023-07-29T09:33:47;8.30;;;4.50;;
61358;SDS011;47228;46.762;23.598;2023-07-29T09:36:15;8.80;;;4.20;;
61358;SDS011;47228;46.762;23.598;2023-07-29T09:38:43;11.00;;;4.30;;
61358;SDS011;47228;46.762;23.598;2023-07-29T09:41:13;6.10;;;4.10;;
61358;SDS011;47228;46.762;23.598;2023-07-29T09:43:43;8.20;;;4.60;;
61358;SDS011;47228;46.762;23.598;2023-07-29T09:46:11;8.20;;;4.60;;
61358;SDS011;47228;46.762;23.598;2023-07-29T09:48:39;8.70;;;4.10;;
61358;SDS011;47228;46.762;23.598;2023-07-29T09:51:11;9.90;;;4.10;;
61358;SDS011;47228;46.762;23.598;2023-07-29T09:53:42;8.30;;;4.40;;
61358;SDS011;47228;46.762;23.598;2023-07-29T09:56:14;6.40;;;3.90;;
61358;SDS011;47228;46.762;23.598;2023-07-29T09:58:46;9.90;;;4.10;;
61358;SDS011;47228;46.762;23.598;2023-07-29T10:01:15;8.30;;;3.90;;
61358;SDS011;47228;46.762;23.598;2023-07-29T10:03:44;9.10;;;4.10;;
61358;SDS011;47228;46.762;23.598;2023-07-29T10:06:13;6.40;;;4.30;;
61358;SDS011;47228;46.762;23.598;2023-07-29T10:08:42;6.40;;;3.70;;
61358;SDS011;47228;46.762;23.598;2023-07-29T10:11:11;7.20;;;4.00;;
61358;SDS011;47228;46.762;23.598;2023-07-29T10:13:39;9.30;;;4.10;;
61358;SDS011;47228;46.762;23.598;2023-07-29T10:16:08;7.30;;;4.10;;
61358;SDS011;47228;46.762;23.598;2023-07-29T10:18:36;7.50;;;4.10;;
61358;SDS011;47228;46.762;23.598;2023-07-29T10:21:05;9.10;;;4.50;;
61358;SDS011;47228;46.762;23.598;2023-07-29T10:23:34;6.60;;;4.30;;
61358;SDS011;47228;46.762;23.598;2023-07-29T10:26:08;11.80;;;4.20;;
61358;SDS011;47228;46.762;23.598;2023-07-29T10:28:41;8.60;;;4.10;;
61358;SDS011;47228;46.762;23.598;2023-07-29T10:31:15;5.70;;;3.50;;
61358;SDS011;47228;46.762;23.598;2023-07-29T10:33:44;7.40;;;3.80;;
61358;SDS011;47228;46.762;23.598;2023-07-29T10:36:13;8.00;;;3.70;;
61358;SDS011;47228;46.762;23.598;2023-07-29T10:38:41;7.10;;;3.90;;
61358;SDS011;47228;46.762;23.598;2023-07-29T10:41:09;6.80;;;4.00;;
61358;SDS011;47228;46.762;23.598;2023-07-29T10:43:37;8.10;;;4.10;;
61358;SDS011;47228;46.762;23.598;2023-07-29T10:46:22;10.90;;;4.10;;
61358;SDS011;47228;46.762;23.598;2023-07-29T10:51:34;34.40;;;4.40;;
61358;SDS011;47228;46.762;23.598;2023-07-29T10:56:39;8.40;;;4.20;;
61358;SDS011;47228;46.762;23.598;2023-07-29T11:01:40;13.30;;;4.40;;
61358;SDS011;47228;46.762;23.598;2023-07-29T11:04:25;6.90;;;3.90;;
61358;SDS011;47228;46.762;23.598;2023-07-29T11:07:18;10.10;;;4.30;;
61358;SDS011;47228;46.762;23.598;2023-07-29T11:15:22;9.20;;;4.50;;
61358;SDS011;47228;46.762;23.598;2023-07-29T11:20:26;9.50;;;4.90;;
61358;SDS011;47228;46.762;23.598;2023-07-29T11:22:56;10.00;;;4.80;;
61358;SDS011;47228;46.762;23.598;2023-07-29T11:25:26;9.90;;;4.30;;
61358;SDS011;47228;46.762;23.598;2023-07-29T11:27:57;6.10;;;3.80;;
61358;SDS011;47228;46.762;23.598;2023-07-29T11:30:26;6.40;;;4.00;;
61358;SDS011;47228;46.762;23.598;2023-07-29T11:32:55;7.30;;;4.30;;
61358;SDS011;47228;46.762;23.598;2023-07-29T11:35:24;8.00;;;4.00;;
61358;SDS011;47228;46.762;23.598;2023-07-29T11:37:53;7.10;;;4.10;;
61358;SDS011;47228;46.762;23.598;2023-07-29T11:40:25;7.70;;;4.10;;
61358;SDS011;47228;46.762;23.598;2023-07-29T11:42:53;6.30;;;3.90;;
61358;SDS011;47228;46.762;23.598;2023-07-29T11:45:22;7.80;;;4.30;;
61358;SDS011;47228;46.762;23.598;2023-07-29T11:48:02;6.20;;;4.10;;
61358;SDS011;47228;46.762;23.598;2023-07-29T11:50:30;6.30;;;3.90;;
61358;SDS011;47228;46.762;23.598;2023-07-29T11:52:58;15.80;;;4.10;;
61358;SDS011;47228;46.762;23.598;2023-07-29T11:55:26;17.50;;;5.40;;
61358;SDS011;47228;46.762;23.598;2023-07-29T11:57:54;10.10;;;4.70;;
61358;SDS011;47228;46.762;23.598;2023-07-29T12:00:22;9.20;;;4.80;;
61358;SDS011;47228;46.762;23.598;2023-07-29T12:02:50;12.90;;;5.10;;
61358;SDS011;47228;46.762;23.598;2023-07-29T12:05:20;9.20;;;5.40;;
61358;SDS011;47228;46.762;23.598;2023-07-29T12:07:50;9.40;;;5.80;;
61358;SDS011;47228;46.762;23.598;2023-07-29T12:10:18;11.20;;;6.30;;
61358;SDS011;47228;46.762;23.598;2023-07-29T12:12:49;10.70;;;6.20;;
61358;SDS011;47228;46.762;23.598;2023-07-29T12:15:27;10.20;;;6.30;;
61358;SDS011;47228;46.762;23.598;2023-07-29T12:17:58;9.50;;;6.80;;
61358;SDS011;47228;46.762;23.598;2023-07-29T12:20:28;13.90;;;6.50;;
61358;SDS011;47228;46.762;23.598;2023-07-29T12:22:58;12.10;;;6.40;;
61358;SDS011;47228;46.762;23.598;2023-07-29T12:25:30;12.50;;;6.30;;
61358;SDS011;47228;46.762;23.598;2023-07-29T12:28:07;11.50;;;6.60;;
61358;SDS011;47228;46.762;23.598;2023-07-29T12:30:41;10.80;;;6.00;;
61358;SDS011;47228;46.762;23.598;2023-07-29T12:33:10;13.10;;;5.90;;
61358;SDS011;47228;46.762;23.598;2023-07-29T12:35:38;12.70;;;7.00;;
61358;SDS011;47228;46.762;23.598;2023-07-29T12:38:06;12.40;;;6.50;;
61358;SDS011;47228;46.762;23.598;2023-07-29T12:40:37;14.60;;;6.50;;
61358;SDS011;47228;46.762;23.598;2023-07-29T12:43:07;11.70;;;6.10;;
61358;SDS011;47228;46.762;23.598;2023-07-29T12:45:35;15.60;;;7.00;;
61358;SDS011;47228;46.762;23.598;2023-07-29T12:48:04;13.60;;;7.00;;
61358;SDS011;47228;46.762;23.598;2023-07-29T12:50:34;12.20;;;6.00;;
61358;SDS011;47228;46.762;23.598;2023-07-29T12:53:02;13.20;;;6.10;;
61358;SDS011;47228;46.762;23.598;2023-07-29T12:55:30;10.30;;;6.10;;
61358;SDS011;47228;46.762;23.598;2023-07-29T12:57:58;14.90;;;6.50;;
61358;SDS011;47228;46.762;23.598;2023-07-29T13:00:26;13.20;;;6.40;;
61358;SDS011;47228;46.762;23.598;2023-07-29T13:02:54;12.10;;;6.50;;
61358;SDS011;47228;46.762;23.598;2023-07-29T13:05:23;11.40;;;6.60;;
61358;SDS011;47228;46.762;23.598;2023-07-29T13:07:51;12.50;;;6.50;;
61358;SDS011;47228;46.762;23.598;2023-07-29T13:10:19;11.90;;;6.10;;
61358;SDS011;47228;46.762;23.598;2023-07-29T13:12:47;11.90;;;6.10;;
61358;SDS011;47228;46.762;23.598;2023-07-29T13:15:16;12.50;;;6.90;;
61358;SDS011;47228;46.762;23.598;2023-07-29T13:17:44;16.10;;;7.00;;
61358;SDS011;47228;46.762;23.598;2023-07-29T13:20:12;13.40;;;7.40;;
61358;SDS011;47228;46.762;23.598;2023-07-29T13:22:40;15.60;;;7.80;;
61358;SDS011;47228;46.762;23.598;2023-07-29T13:25:08;10.90;;;6.70;;
61358;SDS011;47228;46.762;23.598;2023-07-29T13:27:36;11.50;;;6.40;;
61358;SDS011;47228;46.762;23.598;2023-07-29T13:30:04;12.50;;;6.70;;
61358;SDS011;47228;46.762;23.598;2023-07-29T13:32:33;17.50;;;7.10;;
61358;SDS011;47228;46.762;23.598;2023-07-29T13:35:01;17.60;;;7.00;;
61358;SDS011;47228;46.762;23.598;2023-07-29T13:37:29;14.60;;;6.30;;
61358;SDS011;47228;46.762;23.598;2023-07-29T13:39:57;13.60;;;6.50;;
61358;SDS011;47228;46.762;23.598;2023-07-29T13:42:25;12.30;;;6.50;;
61358;SDS011;47228;46.762;23.598;2023-07-29T13:44:52;9.50;;;6.20;;
61358;SDS011;47228;46.762;23.598;2023-07-29T13:47:20;10.80;;;5.90;;
61358;SDS011;47228;46.762;23.598;2023-07-29T13:49:48;12.20;;;5.50;;
61358;SDS011;47228;46.762;23.598;2023-07-29T13:52:16;9.40;;;5.10;;
61358;SDS011;47228;46.762;23.598;2023-07-29T13:54:44;7.40;;;5.20;;
61358;SDS011;47228;46.762;23.598;2023-07-29T13:57:12;8.30;;;5.30;;
61358;SDS011;47228;46.762;23.598;2023-07-29T13:59:40;9.40;;;5.10;;
61358;SDS011;47228;46.762;23.598;2023-07-29T14:02:08;7.50;;;4.60;;
61358;SDS011;47228;46.762;23.598;2023-07-29T14:04:37;7.60;;;4.80;;
61358;SDS011;47228;46.762;23.598;2023-07-29T14:07:05;10.00;;;4.90;;
61358;SDS011;47228;46.762;23.598;2023-07-29T14:09:33;6.50;;;4.50;;
61358;SDS011;47228;46.762;23.598;2023-07-29T14:12:01;10.90;;;5.50;;
61358;SDS011;47228;46.762;23.598;2023-07-29T14:14:29;7.70;;;4.80;;
61358;SDS011;47228;46.762;23.598;2023-07-29T14:16:58;8.00;;;5.00;;
61358;SDS011;47228;46.762;23.598;2023-07-29T14:19:25;8.50;;;5.10;;
61358;SDS011;47228;46.762;23.598;2023-07-29T14:21:54;11.90;;;5.10;;
61358;SDS011;47228;46.762;23.598;2023-07-29T14:24:22;8.40;;;5.20;;
61358;SDS011;47228;46.762;23.598;2023-07-29T14:26:50;8.00;;;4.70;;
61358;SDS011;47228;46.762;23.598;2023-07-29T14:29:18;7.50;;;4.60;;
61358;SDS011;47228;46.762;23.598;2023-07-29T14:31:46;7.90;;;4.10;;
61358;SDS011;47228;46.762;23.598;2023-07-29T14:34:14;8.20;;;4.10;;
61358;SDS011;47228;46.762;23.598;2023-07-29T14:36:42;8.50;;;4.30;;
61358;SDS011;47228;46.762;23.598;2023-07-29T14:39:10;6.70;;;4.00;;
61358;SDS011;47228;46.762;23.598;2023-07-29T14:41:39;8.00;;;4.20;;
61358;SDS011;47228;46.762;23.598;2023-07-29T14:44:07;6.30;;;4.20;;
61358;SDS011;47228;46.762;23.598;2023-07-29T14:46:35;8.70;;;4.90;;
61358;SDS011;47228;46.762;23.598;2023-07-29T14:49:03;10.90;;;4.40;;
61358;SDS011;47228;46.762;23.598;2023-07-29T14:51:31;7.50;;;3.70;;
61358;SDS011;47228;46.762;23.598;2023-07-29T14:53:59;7.60;;;4.10;;